createdAt,value
2019-03-31T00:00:34.151Z,0.00
2019-03-31T00:01:34.163Z,0.00
2019-03-31T00:02:34.136Z,0.00
2019-03-31T00:03:34.127Z,0.00
2019-03-31T00:04:34.198Z,0.00
2019-03-31T00:05:37.089Z,0.00
2019-03-31T00:06:34.081Z,0.00
2019-03-31T00:07:34.081Z,0.00
2019-03-31T00:08:34.075Z,0.00
2019-03-31T00:09:34.050Z,0.00
2019-03-31T00:10:34.048Z,0.00
2019-03-31T00:11:34.064Z,0.00
2019-03-31T00:12:34.049Z,0.00
2019-03-31T00:13:34.012Z,0.00
2019-03-31T00:14:34.005Z,0.00
2019-03-31T00:15:33.999Z,0.00
2019-03-31T00:16:33.984Z,0.00
2019-03-31T00:17:33.992Z,0.00
2019-03-31T00:18:34.078Z,0.00
2019-03-31T00:19:33.929Z,0.00
2019-03-31T00:20:33.935Z,0.00
2019-03-31T00:21:33.921Z,0.00
2019-03-31T00:22:33.927Z,0.00
2019-03-31T00:23:33.960Z,0.00
2019-03-31T00:24:33.913Z,0.00
2019-03-31T00:25:33.894Z,0.00
2019-03-31T00:26:33.867Z,0.00
2019-03-31T00:27:33.857Z,0.00
2019-03-31T00:28:33.861Z,0.00
2019-03-31T00:29:33.835Z,0.00
2019-03-31T00:30:33.833Z,0.00
2019-03-31T00:31:33.821Z,0.00
2019-03-31T00:32:33.799Z,0.00
2019-03-31T00:33:33.800Z,0.00
2019-03-31T00:34:33.785Z,0.00
2019-03-31T00:35:33.778Z,0.00
2019-03-31T00:36:33.761Z,0.00
2019-03-31T00:37:33.756Z,0.00
2019-03-31T00:38:33.770Z,0.00
2019-03-31T00:39:33.714Z,0.00
2019-03-31T00:40:33.704Z,0.00
2019-03-31T00:41:33.694Z,0.00
2019-03-31T00:42:33.691Z,0.00
2019-03-31T00:43:33.691Z,0.00
2019-03-31T00:44:33.705Z,0.00
2019-03-31T00:45:33.698Z,0.00
2019-03-31T00:46:33.638Z,0.00
2019-03-31T00:47:33.626Z,0.00
2019-03-31T00:48:33.653Z,0.00
2019-03-31T00:49:33.617Z,0.00
2019-03-31T00:50:33.620Z,0.00
2019-03-31T00:51:33.586Z,0.00
2019-03-31T00:52:33.570Z,0.00
2019-03-31T00:53:33.556Z,0.00
2019-03-31T00:54:33.565Z,0.00
2019-03-31T00:55:33.568Z,0.00
2019-03-31T00:56:33.544Z,0.00
2019-03-31T00:57:33.534Z,0.00
2019-03-31T00:58:33.527Z,0.00
2019-03-31T00:59:33.498Z,0.00
2019-03-31T01:00:33.507Z,0.00
2019-03-31T01:01:36.724Z,0.00
2019-03-31T01:02:33.473Z,0.00
2019-03-31T01:03:33.464Z,0.00
2019-03-31T01:04:33.466Z,0.00
2019-03-31T01:05:33.433Z,0.00
2019-03-31T01:06:33.460Z,0.00
2019-03-31T01:07:33.414Z,0.00
2019-03-31T01:08:33.407Z,0.00
2019-03-31T01:09:33.385Z,0.00
2019-03-31T01:10:33.386Z,0.00
2019-03-31T01:11:33.387Z,0.00
2019-03-31T01:12:33.371Z,0.00
2019-03-31T01:13:33.335Z,0.00
2019-03-31T01:14:33.341Z,0.00
2019-03-31T01:15:33.327Z,0.00
2019-03-31T01:16:33.328Z,0.00
2019-03-31T01:17:33.323Z,0.00
2019-03-31T01:18:33.285Z,0.00
2019-03-31T01:19:33.281Z,0.00
2019-03-31T01:20:33.275Z,0.00
2019-03-31T01:21:33.278Z,0.00
2019-03-31T01:22:33.257Z,0.00
2019-03-31T01:23:33.225Z,0.00
2019-03-31T01:24:33.246Z,0.00
2019-03-31T01:25:33.226Z,0.00
2019-03-31T01:26:33.203Z,0.00
2019-03-31T01:27:33.210Z,0.00
2019-03-31T01:28:33.178Z,0.00
2019-03-31T01:29:33.163Z,0.00
2019-03-31T01:30:33.157Z,0.00
2019-03-31T01:31:33.136Z,0.00
2019-03-31T01:32:33.168Z,0.00
2019-03-31T01:33:33.121Z,0.00
2019-03-31T01:34:33.122Z,0.00
2019-03-31T01:35:33.103Z,0.00
2019-03-31T01:36:33.086Z,0.00
2019-03-31T01:37:33.068Z,0.00
2019-03-31T01:38:33.100Z,0.00
2019-03-31T01:39:33.061Z,0.00
2019-03-31T01:40:33.048Z,0.00
2019-03-31T01:41:33.038Z,0.00
2019-03-31T01:42:33.022Z,0.00
2019-03-31T01:43:33.004Z,0.00
2019-03-31T01:44:33.023Z,0.00
2019-03-31T01:45:32.997Z,0.00
2019-03-31T01:46:32.981Z,0.00
2019-03-31T01:47:32.979Z,0.00
2019-03-31T01:48:32.960Z,0.00
2019-03-31T01:49:32.969Z,0.00
2019-03-31T01:50:32.947Z,0.00
2019-03-31T01:51:32.929Z,0.00
2019-03-31T01:52:32.918Z,0.00
2019-03-31T01:53:32.902Z,0.00
2019-03-31T01:54:32.883Z,0.00
2019-03-31T01:55:32.894Z,0.00
2019-03-31T01:56:32.860Z,0.00
2019-03-31T01:57:32.854Z,0.00
2019-03-31T01:58:32.845Z,0.00
2019-03-31T01:59:32.834Z,0.00
2019-03-31T02:00:32.848Z,0.00
2019-03-31T02:01:32.814Z,0.00
2019-03-31T02:02:32.812Z,0.00
2019-03-31T02:03:32.789Z,0.00
2019-03-31T02:04:32.788Z,0.00
2019-03-31T02:05:32.753Z,0.00
2019-03-31T02:06:32.821Z,0.00
2019-03-31T02:07:32.744Z,0.00
2019-03-31T02:08:32.723Z,0.00
2019-03-31T02:09:32.722Z,0.00
2019-03-31T02:10:32.766Z,0.00
2019-03-31T02:11:32.706Z,0.00
2019-03-31T02:12:32.696Z,0.00
2019-03-31T02:13:32.682Z,0.00
2019-03-31T02:14:32.664Z,0.00
2019-03-31T02:15:32.663Z,0.00
2019-03-31T02:16:32.659Z,0.00
2019-03-31T02:17:32.623Z,0.00
2019-03-31T02:18:32.633Z,0.00
2019-03-31T02:19:32.625Z,0.00
2019-03-31T02:20:32.600Z,0.00
2019-03-31T02:21:32.621Z,0.00
2019-03-31T02:22:32.564Z,0.00
2019-03-31T02:23:32.561Z,0.00
2019-03-31T02:24:32.571Z,0.00
2019-03-31T02:25:32.545Z,0.00
2019-03-31T02:26:32.527Z,0.00
2019-03-31T02:27:32.538Z,0.00
2019-03-31T02:28:32.545Z,0.00
2019-03-31T02:29:32.493Z,0.00
2019-03-31T02:30:32.493Z,0.00
2019-03-31T02:31:32.481Z,0.00
2019-03-31T02:32:32.494Z,0.00
2019-03-31T02:33:32.466Z,0.00
2019-03-31T02:34:32.457Z,0.00
2019-03-31T02:35:32.435Z,0.00
2019-03-31T02:36:32.416Z,0.00
2019-03-31T02:37:32.406Z,0.00
2019-03-31T02:38:32.457Z,0.00
2019-03-31T02:39:32.403Z,0.00
2019-03-31T02:40:32.375Z,0.00
2019-03-31T02:41:32.363Z,0.00
2019-03-31T02:42:32.359Z,0.00
2019-03-31T02:43:32.372Z,0.00
2019-03-31T02:44:32.737Z,0.00
2019-03-31T02:45:32.338Z,0.00
2019-03-31T02:46:32.321Z,0.00
2019-03-31T02:47:32.304Z,0.00
2019-03-31T02:48:32.308Z,0.00
2019-03-31T02:49:32.291Z,0.00
2019-03-31T02:50:32.268Z,0.00
2019-03-31T02:51:32.276Z,0.00
2019-03-31T02:52:32.272Z,0.00
2019-03-31T02:53:32.238Z,0.00
2019-03-31T02:54:32.227Z,0.00
2019-03-31T02:55:32.230Z,0.00
2019-03-31T02:56:32.221Z,0.00
2019-03-31T02:57:32.193Z,0.00
2019-03-31T02:58:32.170Z,0.00
2019-03-31T02:59:32.167Z,0.00
2019-03-31T03:00:32.193Z,0.00
2019-03-31T03:01:32.164Z,0.00
2019-03-31T03:02:41.368Z,0.00
2019-03-31T03:03:33.128Z,0.00
2019-03-31T03:04:32.118Z,0.00
2019-03-31T03:05:32.129Z,0.00
2019-03-31T03:06:32.139Z,0.00
2019-03-31T03:07:32.064Z,0.00
2019-03-31T03:08:32.074Z,0.00
2019-03-31T03:09:32.072Z,0.00
2019-03-31T03:10:32.046Z,0.00
2019-03-31T03:11:32.058Z,0.00
2019-03-31T03:12:32.027Z,0.00
2019-03-31T03:13:32.004Z,0.00
2019-03-31T03:14:32.012Z,0.00
2019-03-31T03:15:31.991Z,0.00
2019-03-31T03:16:32.007Z,0.00
2019-03-31T03:17:31.986Z,0.00
2019-03-31T03:18:31.966Z,0.00
2019-03-31T03:19:31.959Z,0.00
2019-03-31T03:20:31.927Z,0.00
2019-03-31T03:21:31.936Z,0.00
2019-03-31T03:22:31.947Z,0.00
2019-03-31T03:23:31.916Z,0.00
2019-03-31T03:24:31.895Z,0.00
2019-03-31T03:25:31.885Z,0.00
2019-03-31T03:26:31.894Z,0.00
2019-03-31T03:27:31.851Z,0.00
2019-03-31T03:28:31.849Z,0.00
2019-03-31T03:29:31.837Z,0.00
2019-03-31T03:30:31.894Z,0.00
2019-03-31T03:31:31.840Z,0.00
2019-03-31T03:32:31.813Z,0.00
2019-03-31T03:33:31.789Z,0.00
2019-03-31T03:34:31.794Z,0.00
2019-03-31T03:35:31.779Z,0.00
2019-03-31T03:36:31.800Z,0.00
2019-03-31T03:37:31.751Z,0.00
2019-03-31T03:38:31.743Z,0.00
2019-03-31T03:39:31.727Z,0.00
2019-03-31T03:40:31.712Z,0.00
2019-03-31T03:41:31.699Z,0.00
2019-03-31T03:42:31.719Z,0.00
2019-03-31T03:43:31.685Z,0.00
2019-03-31T03:44:31.663Z,0.00
2019-03-31T03:45:31.685Z,0.00
2019-03-31T03:46:31.681Z,0.00
2019-03-31T03:47:31.657Z,0.00
2019-03-31T03:48:31.624Z,0.00
2019-03-31T03:49:31.620Z,0.00
2019-03-31T03:50:31.600Z,0.00
2019-03-31T03:51:31.588Z,0.00
2019-03-31T03:52:31.599Z,0.00
2019-03-31T03:53:31.565Z,0.00
2019-03-31T03:54:31.557Z,0.00
2019-03-31T03:55:31.576Z,0.00
2019-03-31T03:56:31.539Z,0.00
2019-03-31T03:57:31.557Z,0.00
2019-03-31T03:58:31.517Z,0.00
2019-03-31T03:59:31.501Z,0.00
2019-03-31T04:00:31.503Z,0.00
2019-03-31T04:01:31.483Z,0.00
2019-03-31T04:02:31.469Z,0.00
2019-03-31T04:03:31.496Z,0.00
2019-03-31T04:04:31.446Z,0.00
2019-03-31T04:05:31.427Z,0.00
2019-03-31T04:06:31.437Z,0.00
2019-03-31T04:07:31.439Z,0.00
2019-03-31T04:08:31.406Z,0.00
2019-03-31T04:09:31.429Z,0.00
2019-03-31T04:10:31.378Z,4.00
2019-03-31T04:11:31.362Z,4.00
2019-03-31T04:12:31.362Z,0.00
2019-03-31T04:13:31.353Z,4.00
2019-03-31T04:14:31.368Z,4.00
2019-03-31T04:15:31.334Z,4.00
2019-03-31T04:16:31.319Z,8.00
2019-03-31T04:17:31.305Z,8.00
2019-03-31T04:18:31.325Z,8.00
2019-03-31T04:19:31.290Z,8.00
2019-03-31T04:20:31.301Z,12.00
2019-03-31T04:21:31.276Z,12.00
2019-03-31T04:22:31.260Z,16.00
2019-03-31T04:23:31.230Z,16.00
2019-03-31T04:24:31.225Z,16.00
2019-03-31T04:25:31.266Z,24.00
2019-03-31T04:26:31.229Z,24.00
2019-03-31T04:27:31.198Z,32.00
2019-03-31T04:28:31.204Z,32.00
2019-03-31T04:29:31.180Z,44.00
2019-03-31T04:30:31.159Z,48.00
2019-03-31T04:31:31.192Z,56.00
2019-03-31T04:32:31.153Z,64.00
2019-03-31T04:33:49.500Z,72.00
2019-03-31T04:34:32.116Z,84.00
2019-03-31T04:35:31.115Z,92.00
2019-03-31T04:36:31.114Z,108.00
2019-03-31T04:37:31.083Z,120.00
2019-03-31T04:38:31.096Z,136.00
2019-03-31T04:39:31.087Z,156.00
2019-03-31T04:40:31.060Z,172.00
2019-03-31T04:41:31.062Z,188.00
2019-03-31T04:42:31.040Z,208.00
2019-03-31T04:43:31.024Z,228.00
2019-03-31T04:44:31.013Z,256.00
2019-03-31T04:45:30.998Z,272.00
2019-03-31T04:46:31.005Z,300.00
2019-03-31T04:47:30.975Z,328.00
2019-03-31T04:48:30.968Z,352.00
2019-03-31T04:49:30.943Z,384.00
2019-03-31T04:50:30.947Z,412.00
2019-03-31T04:51:30.955Z,444.00
2019-03-31T04:52:30.958Z,480.00
2019-03-31T04:53:30.914Z,512.00
2019-03-31T04:54:30.916Z,548.00
2019-03-31T04:55:30.882Z,588.00
2019-03-31T04:56:30.880Z,628.00
2019-03-31T04:57:30.857Z,672.00
2019-03-31T04:58:30.876Z,720.00
2019-03-31T04:59:30.858Z,764.00
2019-03-31T05:00:30.840Z,812.00
2019-03-31T05:01:30.829Z,860.00
2019-03-31T05:02:30.798Z,912.00
2019-03-31T05:03:30.840Z,968.00
2019-03-31T05:04:30.802Z,1012.00
2019-03-31T05:05:30.785Z,1072.00
2019-03-31T05:06:30.776Z,1136.00
2019-03-31T05:07:30.780Z,1204.00
2019-03-31T05:08:30.759Z,1260.00
2019-03-31T05:09:30.753Z,1328.00
2019-03-31T05:10:30.726Z,1412.00
2019-03-31T05:11:30.719Z,1500.00
2019-03-31T05:12:31.236Z,1560.00
2019-03-31T05:13:30.693Z,1628.00
2019-03-31T05:14:30.684Z,1696.00
2019-03-31T05:15:30.683Z,1772.00
2019-03-31T05:16:30.666Z,1856.00
2019-03-31T05:17:30.671Z,1940.00
2019-03-31T05:18:31.241Z,2020.00
2019-03-31T05:19:30.638Z,2104.00
2019-03-31T05:20:30.634Z,2172.00
2019-03-31T05:21:30.601Z,2248.00
2019-03-31T05:22:30.601Z,2332.00
2019-03-31T05:23:30.587Z,2424.00
2019-03-31T05:24:30.588Z,2500.00
2019-03-31T05:25:30.573Z,2572.00
2019-03-31T05:26:30.531Z,2648.00
2019-03-31T05:27:30.550Z,2796.00
2019-03-31T05:28:30.513Z,2936.00
2019-03-31T05:29:30.533Z,2936.00
2019-03-31T05:30:30.507Z,3012.00
2019-03-31T05:31:30.496Z,3180.00
2019-03-31T05:32:30.512Z,3388.00
2019-03-31T05:33:30.476Z,3484.00
2019-03-31T05:34:30.462Z,3440.00
2019-03-31T05:35:30.456Z,3456.00
2019-03-31T05:36:30.435Z,3516.00
2019-03-31T05:37:30.437Z,3828.00
2019-03-31T05:38:30.433Z,3920.00
2019-03-31T05:39:30.403Z,3800.00
2019-03-31T05:40:30.837Z,4020.00
2019-03-31T05:41:30.395Z,4112.00
2019-03-31T05:42:30.373Z,4100.00
2019-03-31T05:43:30.368Z,4072.00
2019-03-31T05:44:30.422Z,4412.00
2019-03-31T05:45:30.334Z,4808.00
2019-03-31T05:46:30.317Z,5236.00
2019-03-31T05:47:30.342Z,4580.00
2019-03-31T05:48:30.301Z,4084.00
2019-03-31T05:49:30.288Z,4272.00
2019-03-31T05:50:30.310Z,4356.00
2019-03-31T05:51:30.286Z,3916.00
2019-03-31T05:52:30.257Z,3748.00
2019-03-31T05:53:30.278Z,3248.00
2019-03-31T05:54:30.243Z,3768.00
2019-03-31T05:55:30.236Z,3364.00
2019-03-31T05:56:30.261Z,3904.00
2019-03-31T05:57:30.207Z,4092.00
2019-03-31T05:58:30.187Z,3520.00
2019-03-31T05:59:30.198Z,3676.00
2019-03-31T06:00:30.169Z,3104.00
2019-03-31T06:01:30.154Z,2908.00
2019-03-31T06:02:30.180Z,2896.00
2019-03-31T06:03:30.190Z,2908.00
2019-03-31T06:04:33.359Z,2980.00
2019-03-31T06:05:30.123Z,3196.00
2019-03-31T06:06:30.103Z,3712.00
2019-03-31T06:07:30.087Z,3596.00
2019-03-31T06:08:30.099Z,3964.00
2019-03-31T06:09:30.069Z,3396.00
2019-03-31T06:10:30.050Z,2924.00
2019-03-31T06:11:30.043Z,3120.00
2019-03-31T06:12:30.038Z,3540.00
2019-03-31T06:13:30.075Z,3872.00
2019-03-31T06:14:30.023Z,4012.00
2019-03-31T06:15:30.020Z,3920.00
2019-03-31T06:16:30.019Z,3772.00
2019-03-31T06:17:29.985Z,3940.00
2019-03-31T06:18:29.971Z,5660.00
2019-03-31T06:19:29.974Z,5904.00
2019-03-31T06:20:29.943Z,5216.00
2019-03-31T06:21:29.946Z,4688.00
2019-03-31T06:22:30.684Z,4816.00
2019-03-31T06:23:29.943Z,4488.00
2019-03-31T06:24:29.890Z,5012.00
2019-03-31T06:25:29.893Z,5292.00
2019-03-31T06:26:29.908Z,5280.00
2019-03-31T06:27:29.875Z,6656.00
2019-03-31T06:28:29.889Z,6592.00
2019-03-31T06:29:29.883Z,9708.00
2019-03-31T06:30:29.863Z,10404.00
2019-03-31T06:31:29.847Z,12308.00
2019-03-31T06:32:29.825Z,11336.00
2019-03-31T06:33:29.819Z,12024.00
2019-03-31T06:34:29.814Z,12100.00
2019-03-31T06:35:29.871Z,11788.00
2019-03-31T06:36:29.820Z,11928.00
2019-03-31T06:37:29.764Z,11300.00
2019-03-31T06:38:29.747Z,11380.00
2019-03-31T06:39:29.751Z,12084.00
2019-03-31T06:40:29.750Z,12028.00
2019-03-31T06:41:29.713Z,12024.00
2019-03-31T06:42:29.719Z,12352.00
2019-03-31T06:43:29.688Z,12664.00
2019-03-31T06:44:29.680Z,12416.00
2019-03-31T06:45:29.688Z,13068.00
2019-03-31T06:46:29.681Z,14576.00
2019-03-31T06:47:29.652Z,17504.00
2019-03-31T06:48:29.642Z,14888.00
2019-03-31T06:49:29.644Z,13224.00
2019-03-31T06:50:29.625Z,13404.00
2019-03-31T06:51:29.626Z,13924.00
2019-03-31T06:52:29.593Z,13852.00
2019-03-31T06:53:29.573Z,14768.00
2019-03-31T06:54:29.575Z,15060.00
2019-03-31T06:55:29.595Z,17440.00
2019-03-31T06:56:29.547Z,17952.00
2019-03-31T06:57:29.532Z,16544.00
2019-03-31T06:58:29.532Z,17408.00
2019-03-31T06:59:29.518Z,17120.00
2019-03-31T07:00:29.508Z,20000.00
2019-03-31T07:01:29.514Z,22528.00
2019-03-31T07:02:29.493Z,28736.00
2019-03-31T07:03:29.467Z,31168.00
2019-03-31T07:04:29.451Z,30368.00
2019-03-31T07:05:29.459Z,24544.00
2019-03-31T07:06:29.480Z,26688.00
2019-03-31T07:07:29.433Z,30080.00
2019-03-31T07:08:29.416Z,27840.00
2019-03-31T07:09:29.416Z,17280.00
2019-03-31T07:10:29.388Z,31328.00
2019-03-31T07:11:29.389Z,34528.00
2019-03-31T07:12:29.411Z,34048.00
2019-03-31T07:13:29.364Z,28544.00
2019-03-31T07:14:29.339Z,35808.00
2019-03-31T07:15:29.338Z,34688.00
2019-03-31T07:16:29.321Z,30336.00
2019-03-31T07:17:29.324Z,27456.00
2019-03-31T07:18:29.328Z,26016.00
2019-03-31T07:19:29.307Z,18944.00
2019-03-31T07:20:29.287Z,31808.00
2019-03-31T07:21:29.278Z,34752.00
2019-03-31T07:22:29.282Z,36736.00
2019-03-31T07:23:29.250Z,29312.00
2019-03-31T07:24:29.234Z,21568.00
2019-03-31T07:25:29.224Z,20256.00
2019-03-31T07:26:29.218Z,17792.00
2019-03-31T07:27:29.227Z,21344.00
2019-03-31T07:28:29.205Z,22112.00
2019-03-31T07:29:29.178Z,22464.00
2019-03-31T07:30:29.179Z,20224.00
2019-03-31T07:31:29.171Z,23456.00
2019-03-31T07:32:29.173Z,22848.00
2019-03-31T07:33:29.144Z,18656.00
2019-03-31T07:34:29.129Z,20000.00
2019-03-31T07:35:29.112Z,23264.00
2019-03-31T07:36:29.119Z,21376.00
2019-03-31T07:37:29.091Z,16416.00
2019-03-31T07:38:38.719Z,13468.00
2019-03-31T07:39:30.358Z,13496.00
2019-03-31T07:40:29.254Z,12440.00
2019-03-31T07:41:29.122Z,21536.00
2019-03-31T07:42:29.075Z,22304.00
2019-03-31T07:43:29.041Z,17952.00
2019-03-31T07:44:29.062Z,9380.00
2019-03-31T07:45:29.313Z,9504.00
2019-03-31T07:46:28.987Z,9160.00
2019-03-31T07:47:28.977Z,9336.00
2019-03-31T07:48:28.964Z,9664.00
2019-03-31T07:49:28.950Z,10824.00
2019-03-31T07:50:28.986Z,11376.00
2019-03-31T07:51:28.953Z,11824.00
2019-03-31T07:52:28.931Z,11124.00
2019-03-31T07:53:28.924Z,9800.00
2019-03-31T07:54:28.907Z,9540.00
2019-03-31T07:55:28.900Z,10948.00
2019-03-31T07:56:28.919Z,10804.00
2019-03-31T07:57:28.872Z,12204.00
2019-03-31T07:58:28.900Z,11396.00
2019-03-31T07:59:28.916Z,12412.00
2019-03-31T08:00:28.861Z,12208.00
2019-03-31T08:01:28.826Z,11492.00
2019-03-31T08:02:28.855Z,10124.00
2019-03-31T08:03:28.811Z,7204.00
2019-03-31T08:04:28.829Z,6684.00
2019-03-31T08:05:33.293Z,8652.00
2019-03-31T08:06:29.763Z,13024.00
2019-03-31T08:07:28.777Z,14864.00
2019-03-31T08:08:28.748Z,14264.00
2019-03-31T08:09:28.734Z,14324.00
2019-03-31T08:10:28.744Z,14352.00
2019-03-31T08:11:28.726Z,14000.00
2019-03-31T08:12:28.743Z,16080.00
2019-03-31T08:13:28.720Z,12092.00
2019-03-31T08:14:28.688Z,10552.00
2019-03-31T08:15:28.698Z,10364.00
2019-03-31T08:16:28.661Z,11404.00
2019-03-31T08:17:28.683Z,12432.00
2019-03-31T08:18:28.640Z,14272.00
2019-03-31T08:19:28.628Z,17408.00
2019-03-31T08:20:28.617Z,12476.00
2019-03-31T08:21:28.606Z,10564.00
2019-03-31T08:22:28.634Z,10988.00
2019-03-31T08:23:28.599Z,12328.00
2019-03-31T08:24:28.582Z,17088.00
2019-03-31T08:25:28.579Z,16288.00
2019-03-31T08:26:28.551Z,14108.00
2019-03-31T08:27:28.566Z,17952.00
2019-03-31T08:28:28.532Z,29952.00
2019-03-31T08:29:28.515Z,26464.00
2019-03-31T08:30:28.513Z,35072.00
2019-03-31T08:31:28.513Z,29408.00
2019-03-31T08:32:28.736Z,18912.00
2019-03-31T08:33:28.532Z,17408.00
2019-03-31T08:34:28.473Z,17408.00
2019-03-31T08:35:28.468Z,18400.00
2019-03-31T08:36:28.469Z,15308.00
2019-03-31T08:37:28.430Z,15444.00
2019-03-31T08:38:28.414Z,13828.00
2019-03-31T08:39:28.421Z,16136.00
2019-03-31T08:40:28.388Z,15124.00
2019-03-31T08:41:28.383Z,12548.00
2019-03-31T08:42:28.402Z,10444.00
2019-03-31T08:43:28.371Z,8380.00
2019-03-31T08:44:28.822Z,8156.00
2019-03-31T08:45:30.399Z,7388.00
2019-03-31T08:46:28.351Z,7088.00
2019-03-31T08:47:28.327Z,7492.00
2019-03-31T08:48:28.315Z,7492.00
2019-03-31T08:49:28.325Z,7728.00
2019-03-31T08:50:28.286Z,10628.00
2019-03-31T08:51:28.280Z,9980.00
2019-03-31T08:52:28.330Z,6504.00
2019-03-31T08:53:28.249Z,5196.00
2019-03-31T08:54:28.259Z,5764.00
2019-03-31T08:55:28.246Z,6380.00
2019-03-31T08:56:28.257Z,8156.00
2019-03-31T08:57:28.215Z,10236.00
2019-03-31T08:58:28.216Z,12196.00
2019-03-31T08:59:28.191Z,14404.00
2019-03-31T09:00:28.174Z,16784.00
2019-03-31T09:01:28.196Z,18144.00
2019-03-31T09:02:28.177Z,21984.00
2019-03-31T09:03:28.178Z,21920.00
2019-03-31T09:04:28.132Z,14984.00
2019-03-31T09:05:28.117Z,11016.00
2019-03-31T09:06:28.130Z,9408.00
2019-03-31T09:07:28.122Z,7600.00
2019-03-31T09:08:28.115Z,6284.00
2019-03-31T09:09:28.090Z,5740.00
2019-03-31T09:10:28.056Z,5300.00
2019-03-31T09:11:28.056Z,5112.00
2019-03-31T09:12:28.065Z,4972.00
2019-03-31T09:13:28.044Z,4560.00
2019-03-31T09:14:28.032Z,5076.00
2019-03-31T09:15:28.017Z,5740.00
2019-03-31T09:16:27.997Z,5688.00
2019-03-31T09:17:28.000Z,5184.00
2019-03-31T09:18:27.983Z,4800.00
2019-03-31T09:19:28.010Z,4636.00
2019-03-31T09:20:27.979Z,4824.00
2019-03-31T09:21:27.952Z,5544.00
2019-03-31T09:22:27.934Z,6804.00
2019-03-31T09:23:27.922Z,6816.00
2019-03-31T09:24:27.940Z,5336.00
2019-03-31T09:25:27.896Z,3920.00
2019-03-31T09:26:27.908Z,3012.00
2019-03-31T09:27:27.883Z,2808.00
2019-03-31T09:28:27.870Z,2924.00
2019-03-31T09:29:27.947Z,2772.00
2019-03-31T09:30:27.863Z,2428.00
2019-03-31T09:31:27.838Z,2236.00
2019-03-31T09:32:27.844Z,2200.00
2019-03-31T09:33:27.807Z,2364.00
2019-03-31T09:34:27.809Z,2484.00
2019-03-31T09:35:27.836Z,2476.00
2019-03-31T09:36:27.792Z,2572.00
2019-03-31T09:37:27.774Z,2604.00
2019-03-31T09:38:27.799Z,2772.00
2019-03-31T09:39:27.746Z,2800.00
2019-03-31T09:40:27.775Z,2804.00
2019-03-31T09:41:27.784Z,3060.00
2019-03-31T09:42:27.712Z,3624.00
2019-03-31T09:43:27.691Z,4316.00
2019-03-31T09:44:30.280Z,4804.00
2019-03-31T09:45:27.701Z,4900.00
2019-03-31T09:46:27.691Z,5328.00
2019-03-31T09:47:27.655Z,5836.00
2019-03-31T09:48:27.649Z,5928.00
2019-03-31T09:49:27.673Z,6168.00
2019-03-31T09:50:27.619Z,6680.00
2019-03-31T09:51:27.598Z,6328.00
2019-03-31T09:52:27.616Z,6728.00
2019-03-31T09:53:27.594Z,7548.00
2019-03-31T09:54:27.627Z,8296.00
2019-03-31T09:55:27.583Z,8676.00
2019-03-31T09:56:27.589Z,9304.00
2019-03-31T09:57:27.547Z,10216.00
2019-03-31T09:58:27.626Z,10732.00
2019-03-31T09:59:27.527Z,10708.00
2019-03-31T10:00:27.518Z,11172.00
2019-03-31T10:01:27.527Z,12256.00
2019-03-31T10:02:27.539Z,13804.00
2019-03-31T10:03:27.482Z,14284.00
2019-03-31T10:04:27.469Z,13628.00
2019-03-31T10:05:27.454Z,13152.00
2019-03-31T10:06:30.409Z,12880.00
2019-03-31T10:07:27.438Z,12796.00
2019-03-31T10:08:27.449Z,12840.00
2019-03-31T10:09:27.407Z,13028.00
2019-03-31T10:10:27.403Z,13352.00
2019-03-31T10:11:27.400Z,13260.00
2019-03-31T10:12:27.380Z,13424.00
2019-03-31T10:13:27.404Z,13696.00
2019-03-31T10:14:27.358Z,13760.00
2019-03-31T10:15:27.342Z,14632.00
2019-03-31T10:16:27.330Z,15016.00
2019-03-31T10:17:27.328Z,15100.00
2019-03-31T10:18:27.325Z,14760.00
2019-03-31T10:19:27.341Z,14404.00
2019-03-31T10:20:27.296Z,14364.00
2019-03-31T10:21:27.293Z,13956.00
2019-03-31T10:22:27.284Z,13312.00
2019-03-31T10:23:27.275Z,12872.00
2019-03-31T10:24:27.269Z,13976.00
2019-03-31T10:25:27.243Z,16716.00
2019-03-31T10:26:32.082Z,19648.00
2019-03-31T10:27:28.215Z,22240.00
2019-03-31T10:28:27.209Z,21600.00
2019-03-31T10:29:27.207Z,20192.00
2019-03-31T10:30:27.187Z,18816.00
2019-03-31T10:31:27.186Z,17312.00
2019-03-31T10:32:27.156Z,15632.00
2019-03-31T10:33:27.159Z,15292.00
2019-03-31T10:34:27.162Z,14300.00
2019-03-31T10:35:27.131Z,13132.00
2019-03-31T10:36:27.147Z,12156.00
2019-03-31T10:37:27.103Z,11476.00
2019-03-31T10:38:27.092Z,11104.00
2019-03-31T10:39:27.106Z,10844.00
2019-03-31T10:40:27.069Z,9564.00
2019-03-31T10:41:27.067Z,7900.00
2019-03-31T10:42:27.053Z,6944.00
2019-03-31T10:43:27.054Z,6432.00
2019-03-31T10:44:27.048Z,7312.00
2019-03-31T10:45:27.026Z,8368.00
2019-03-31T10:46:26.998Z,11136.00
2019-03-31T10:47:27.018Z,13240.00
2019-03-31T10:48:26.980Z,14172.00
2019-03-31T10:49:27.003Z,14216.00
2019-03-31T10:50:26.968Z,14240.00
2019-03-31T10:51:26.950Z,14244.00
2019-03-31T10:52:26.938Z,15380.00
2019-03-31T10:53:26.946Z,16504.00
2019-03-31T10:54:26.920Z,17696.00
2019-03-31T10:55:26.923Z,17152.00
2019-03-31T10:56:27.024Z,19520.00
2019-03-31T10:57:26.890Z,20288.00
2019-03-31T10:58:26.866Z,18720.00
2019-03-31T10:59:26.856Z,16904.00
2019-03-31T11:00:26.898Z,15612.00
2019-03-31T11:01:26.837Z,30944.00
2019-03-31T11:02:26.834Z,95616.00
2019-03-31T11:03:26.819Z,92256.00
2019-03-31T11:04:26.804Z,90784.00
2019-03-31T11:05:26.816Z,93632.00
2019-03-31T11:06:26.789Z,93632.00
2019-03-31T11:07:26.772Z,29728.00
2019-03-31T11:08:26.758Z,28192.00
2019-03-31T11:09:26.744Z,38208.00
2019-03-31T11:10:26.768Z,25408.00
2019-03-31T11:11:26.729Z,26624.00
2019-03-31T11:12:26.714Z,24896.00
2019-03-31T11:13:26.705Z,39200.00
2019-03-31T11:14:26.697Z,29216.00
2019-03-31T11:15:26.695Z,21088.00
2019-03-31T11:16:26.711Z,20928.00
2019-03-31T11:17:26.684Z,23680.00
2019-03-31T11:18:26.646Z,43648.00
2019-03-31T11:19:26.624Z,66432.00
2019-03-31T11:20:26.625Z,101920.00
2019-03-31T11:21:26.612Z,33824.00
2019-03-31T11:22:26.626Z,85120.00
2019-03-31T11:23:26.595Z,25632.00
2019-03-31T11:24:26.592Z,54272.00
2019-03-31T11:25:29.316Z,19168.00
2019-03-31T11:26:26.571Z,18304.00
2019-03-31T11:27:26.585Z,17696.00
2019-03-31T11:28:26.545Z,18784.00
2019-03-31T11:29:26.533Z,16508.00
2019-03-31T11:30:26.515Z,93504.00
2019-03-31T11:31:26.504Z,14356.00
2019-03-31T11:32:26.484Z,32768.00
2019-03-31T11:33:26.513Z,96256.00
2019-03-31T11:34:26.476Z,93664.00
2019-03-31T11:35:26.471Z,90176.00
2019-03-31T11:36:26.455Z,90528.00
2019-03-31T11:37:26.441Z,90240.00
2019-03-31T11:38:26.463Z,91296.00
2019-03-31T11:39:26.423Z,91200.00
2019-03-31T11:40:26.402Z,92384.00
2019-03-31T11:41:26.390Z,91424.00
2019-03-31T11:42:26.399Z,93024.00
2019-03-31T11:43:26.389Z,16240.00
2019-03-31T11:44:27.855Z,94656.00
2019-03-31T11:45:26.343Z,93120.00
2019-03-31T11:46:26.345Z,91808.00
2019-03-31T11:47:26.345Z,87840.00
2019-03-31T11:48:26.361Z,87488.00
2019-03-31T11:49:26.316Z,86336.00
2019-03-31T11:50:26.299Z,87264.00
2019-03-31T11:51:26.297Z,86496.00
2019-03-31T11:52:26.275Z,84352.00
2019-03-31T11:53:26.301Z,85792.00
2019-03-31T11:54:26.295Z,52960.00
2019-03-31T11:55:26.300Z,86304.00
2019-03-31T11:56:26.243Z,86592.00
2019-03-31T11:57:26.230Z,83872.00
2019-03-31T11:58:26.211Z,81632.00
2019-03-31T11:59:26.225Z,84224.00
2019-03-31T12:00:26.205Z,88384.00
2019-03-31T12:01:26.203Z,90880.00
2019-03-31T12:02:27.594Z,92608.00
2019-03-31T12:03:26.296Z,92928.00
2019-03-31T12:04:26.152Z,90528.00
2019-03-31T12:05:26.194Z,88704.00
2019-03-31T12:06:26.144Z,89728.00
2019-03-31T12:07:28.153Z,90848.00
2019-03-31T12:08:26.143Z,88288.00
2019-03-31T12:09:26.107Z,86368.00
2019-03-31T12:10:26.117Z,85408.00
2019-03-31T12:11:26.088Z,86048.00
2019-03-31T12:12:26.075Z,86048.00
2019-03-31T12:13:26.081Z,84704.00
2019-03-31T12:14:26.062Z,84832.00
2019-03-31T12:15:26.101Z,84832.00
2019-03-31T12:16:26.047Z,85632.00
2019-03-31T12:17:26.026Z,79936.00
2019-03-31T12:18:26.022Z,19424.00
2019-03-31T12:19:26.015Z,21120.00
2019-03-31T12:20:26.002Z,29536.00
2019-03-31T12:21:26.011Z,28288.00
2019-03-31T12:22:25.989Z,25824.00